Time;durP1;ratioP1;P1;durP2;ratioP2;P2;SDS_P1;SDS_P2;PMS_P1;PMS_P2;Temp;Humidity;BMP_temperature;BMP_pressure;BME280_temperature;BME280_humidity;BME280_pressure;Samples;Min_cycle;Max_cycle;Signal;HPM_P1;HPM_P2
2022/07/22 00:02:02;;;;;;;16.60;5.40;;;;;;;;;;103297;1314;22628;-29
2022/07/22 00:04:31;;;;;;;12.40;4.60;;;;;;;;;;103202;1323;22542;-25
2022/07/22 00:07:00;;;;;;;7.70;4.30;;;;;;;;;;103134;1314;22717;-25
2022/07/22 00:09:29;;;;;;;9.90;5.50;;;;;;;;;;103127;1323;22722;-25
2022/07/22 00:11:57;;;;;;;10.50;4.80;;;;;;;;;;103220;1320;22592;-29
2022/07/22 00:14:26;;;;;;;6.90;5.50;;;;;;;;;;103163;1320;22568;-25
2022/07/22 00:16:55;;;;;;;8.50;6.00;;;;;;;;;;103135;1313;22574;-24
2022/07/22 00:19:24;;;;;;;11.00;4.70;;;;;;;;;;103126;1323;22827;-24
2022/07/22 00:21:53;;;;;;;5.20;3.50;;;;;;;;;;103184;1323;22576;-25
2022/07/22 00:24:21;;;;;;;4.00;3.30;;;;;;;;;;103340;1323;22543;-29
2022/07/22 00:26:50;;;;;;;8.30;5.60;;;;;;;;;;103165;1323;22715;-28
2022/07/22 00:29:19;;;;;;;18.50;4.80;;;;;;;;;;103291;1323;22728;-25
2022/07/22 00:31:48;;;;;;;6.80;3.80;;;;;;;;;;103242;1314;22561;-28
2022/07/22 00:34:17;;;;;;;4.00;3.70;;;;;;;;;;103236;1320;22722;-24
2022/07/22 00:36:45;;;;;;;8.50;3.60;;;;;;;;;;103184;1313;22573;-26
2022/07/22 00:39:15;;;;;;;5.90;4.50;;;;;;;;;;103227;1323;22966;-28
2022/07/22 00:41:44;;;;;;;7.40;4.70;;;;;;;;;;103155;1314;22578;-24
2022/07/22 00:44:12;;;;;;;7.90;4.40;;;;;;;;;;103253;1323;22547;-25
2022/07/22 00:46:41;;;;;;;13.90;5.20;;;;;;;;;;103253;1323;22546;-28
2022/07/22 00:49:10;;;;;;;6.20;4.10;;;;;;;;;;103117;1320;22831;-28
2022/07/22 00:51:39;;;;;;;7.50;5.60;;;;;;;;;;103046;1316;22562;-28
2022/07/22 00:54:08;;;;;;;8.50;6.40;;;;;;;;;;103198;1313;22548;-25
2022/07/22 00:56:37;;;;;;;2.00;1.80;;;;;;;;;;103244;1313;22831;-29
2022/07/22 00:59:07;;;;;;;11.50;5.10;;;;;;;;;;102470;1314;1003048;-25
2022/07/22 01:01:36;;;;;;;17.70;5.90;;;;;;;;;;103189;1314;22559;-29
2022/07/22 01:04:05;;;;;;;4.90;4.00;;;;;;;;;;103388;1314;22556;-24
2022/07/22 01:06:33;;;;;;;9.30;6.00;;;;;;;;;;103305;1314;22730;-28
2022/07/22 01:09:03;;;;;;;4.80;3.70;;;;;;;;;;103124;1328;22553;-28
2022/07/22 01:11:31;;;;;;;8.60;4.60;;;;;;;;;;103308;1314;22588;-25
2022/07/22 01:14:00;;;;;;;6.30;4.70;;;;;;;;;;103317;1320;23052;-25
2022/07/22 01:16:29;;;;;;;5.10;3.70;;;;;;;;;;103159;1314;22574;-28
2022/07/22 01:18:58;;;;;;;5.30;4.70;;;;;;;;;;103252;1323;22562;-26
2022/07/22 01:21:27;;;;;;;9.80;5.50;;;;;;;;;;103125;1314;22546;-25
2022/07/22 01:23:56;;;;;;;8.10;4.90;;;;;;;;;;103236;1326;23202;-29
2022/07/22 01:26:24;;;;;;;10.00;4.40;;;;;;;;;;103358;1313;24967;-29
2022/07/22 01:28:53;;;;;;;5.30;4.50;;;;;;;;;;103156;1322;22530;-28
2022/07/22 01:31:22;;;;;;;19.70;5.80;;;;;;;;;;103126;1314;22711;-29
2022/07/22 01:33:51;;;;;;;5.00;4.30;;;;;;;;;;103144;1321;22716;-28
2022/07/22 01:36:20;;;;;;;15.20;5.10;;;;;;;;;;103218;1314;22567;-29
2022/07/22 01:38:49;;;;;;;11.30;5.00;;;;;;;;;;103135;1322;22724;-30
2022/07/22 01:41:17;;;;;;;6.10;4.90;;;;;;;;;;103295;1313;22570;-30
2022/07/22 01:43:46;;;;;;;6.60;5.10;;;;;;;;;;103246;1323;23044;-25
2022/07/22 01:46:16;;;;;;;6.20;5.20;;;;;;;;;;103171;1323;22838;-26
2022/07/22 01:48:45;;;;;;;4.20;3.50;;;;;;;;;;103200;1320;25470;-25
2022/07/22 01:51:14;;;;;;;5.50;4.90;;;;;;;;;;103203;1322;22712;-31
2022/07/22 01:53:43;;;;;;;10.50;5.20;;;;;;;;;;103206;1323;22571;-25
2022/07/22 01:56:12;;;;;;;6.40;4.00;;;;;;;;;;103343;1313;22716;-25
2022/07/22 01:58:41;;;;;;;6.80;3.80;;;;;;;;;;103175;1323;22711;-29
2022/07/22 02:01:09;;;;;;;6.30;3.80;;;;;;;;;;103196;1313;22573;-29
2022/07/22 02:03:38;;;;;;;7.70;4.90;;;;;;;;;;103082;1323;22728;-25
2022/07/22 02:06:07;;;;;;;5.40;5.00;;;;;;;;;;103153;1313;22556;-25
2022/07/22 02:08:36;;;;;;;12.50;3.60;;;;;;;;;;103251;1320;22560;-31
2022/07/22 02:11:05;;;;;;;7.50;5.50;;;;;;;;;;103128;1314;22703;-26
2022/07/22 02:13:34;;;;;;;5.80;3.70;;;;;;;;;;103257;1320;22720;-28
2022/07/22 02:16:03;;;;;;;5.10;4.30;;;;;;;;;;103183;1313;23016;-25
2022/07/22 02:18:31;;;;;;;6.40;4.40;;;;;;;;;;103242;1323;22588;-31
2022/07/22 02:21:00;;;;;;;5.10;4.10;;;;;;;;;;103244;1316;22567;-28
2022/07/22 02:23:29;;;;;;;6.90;4.20;;;;;;;;;;103141;1323;22711;-24
2022/07/22 02:25:57;;;;;;;4.20;3.60;;;;;;;;;;103156;1313;22546;-24
2022/07/22 02:28:26;;;;;;;4.60;4.30;;;;;;;;;;103205;1313;22571;-25
2022/07/22 02:30:55;;;;;;;5.40;3.60;;;;;;;;;;103260;1313;22804;-27
2022/07/22 02:33:24;;;;;;;4.50;3.80;;;;;;;;;;103309;1323;22828;-25
2022/07/22 02:35:53;;;;;;;4.50;4.10;;;;;;;;;;103200;1313;22594;-27
2022/07/22 02:38:21;;;;;;;7.40;3.70;;;;;;;;;;103074;1324;22589;-31
2022/07/22 02:40:50;;;;;;;5.70;5.10;;;;;;;;;;103165;1320;22724;-29
2022/07/22 02:43:19;;;;;;;4.90;4.40;;;;;;;;;;103207;1320;23057;-28
2022/07/22 02:45:48;;;;;;;3.90;3.50;;;;;;;;;;103126;1320;22838;-32
2022/07/22 02:48:17;;;;;;;5.40;4.90;;;;;;;;;;103200;1321;22701;-26
2022/07/22 02:50:46;;;;;;;3.70;3.30;;;;;;;;;;103190;1313;23189;-27
2022/07/22 02:53:15;;;;;;;4.70;4.00;;;;;;;;;;103338;1320;22998;-26
2022/07/22 02:55:44;;;;;;;6.70;5.30;;;;;;;;;;103235;1321;23149;-30
2022/07/22 02:58:12;;;;;;;4.50;4.10;;;;;;;;;;102540;1323;1003314;-30
2022/07/22 03:00:41;;;;;;;3.80;2.70;;;;;;;;;;103142;1326;24405;-28
2022/07/22 03:03:10;;;;;;;4.80;3.10;;;;;;;;;;103135;1323;22576;-25
2022/07/22 03:05:39;;;;;;;10.70;4.20;;;;;;;;;;103040;1323;22679;-29
2022/07/22 03:08:07;;;;;;;4.70;2.70;;;;;;;;;;103233;1323;22981;-29
2022/07/22 03:10:36;;;;;;;3.60;2.70;;;;;;;;;;103171;1322;22569;-28
2022/07/22 03:13:05;;;;;;;3.60;2.10;;;;;;;;;;103220;1314;22590;-29
2022/07/22 03:15:34;;;;;;;3.20;2.40;;;;;;;;;;103208;1313;22646;-25
2022/07/22 03:18:03;;;;;;;4.20;3.10;;;;;;;;;;103241;1323;22728;-25
2022/07/22 03:20:33;;;;;;;4.10;3.40;;;;;;;;;;103282;1320;22579;-29
2022/07/22 03:23:02;;;;;;;6.20;4.80;;;;;;;;;;103138;1321;26521;-25
2022/07/22 03:25:32;;;;;;;2.30;1.10;;;;;;;;;;102440;1314;1003227;-28
2022/07/22 03:28:01;;;;;;;13.30;3.00;;;;;;;;;;103232;1323;22720;-25
2022/07/22 03:30:30;;;;;;;2.80;2.20;;;;;;;;;;103137;1314;22567;-23
2022/07/22 03:32:58;;;;;;;2.50;2.30;;;;;;;;;;103085;1320;22548;-28
2022/07/22 03:35:27;;;;;;;8.10;2.60;;;;;;;;;;103148;1320;22566;-28
2022/07/22 03:37:56;;;;;;;2.60;1.90;;;;;;;;;;103123;1322;22769;-30
2022/07/22 03:40:25;;;;;;;9.50;4.40;;;;;;;;;;103032;1323;22860;-30
2022/07/22 03:42:54;;;;;;;8.90;2.90;;;;;;;;;;103163;1326;22565;-29
2022/07/22 03:45:22;;;;;;;9.50;4.80;;;;;;;;;;103157;1323;22549;-28
2022/07/22 03:47:54;;;;;;;3.90;3.50;;;;;;;;;;103396;1323;22670;-28
2022/07/22 03:50:23;;;;;;;13.00;4.10;;;;;;;;;;103133;1320;22564;-25
2022/07/22 03:52:52;;;;;;;3.30;2.90;;;;;;;;;;103179;1323;24251;-28
2022/07/22 03:55:21;;;;;;;6.00;3.80;;;;;;;;;;103167;1314;22564;-29
2022/07/22 03:57:50;;;;;;;5.70;4.90;;;;;;;;;;103249;1323;24282;-26
2022/07/22 04:00:18;;;;;;;8.70;5.00;;;;;;;;;;103136;1316;26756;-27
2022/07/22 04:02:47;;;;;;;6.10;4.60;;;;;;;;;;102880;1313;507058;-28
2022/07/22 04:05:16;;;;;;;5.40;4.70;;;;;;;;;;103133;1326;22708;-28
2022/07/22 04:07:45;;;;;;;4.10;3.80;;;;;;;;;;103226;1314;22544;-29
2022/07/22 04:10:14;;;;;;;5.20;4.50;;;;;;;;;;103141;1328;24235;-29
2022/07/22 04:12:43;;;;;;;4.70;3.50;;;;;;;;;;103180;1320;22799;-28
2022/07/22 04:15:12;;;;;;;5.80;5.30;;;;;;;;;;103168;1313;22590;-25
2022/07/22 04:17:40;;;;;;;3.50;3.20;;;;;;;;;;103048;1323;22721;-29
2022/07/22 04:20:09;;;;;;;3.50;3.00;;;;;;;;;;103206;1313;22559;-23
2022/07/22 04:22:38;;;;;;;5.60;5.10;;;;;;;;;;103189;1324;22842;-29
2022/07/22 04:25:07;;;;;;;7.10;4.50;;;;;;;;;;103094;1314;22544;-25
2022/07/22 04:27:36;;;;;;;6.90;4.70;;;;;;;;;;103161;1324;22716;-30
2022/07/22 04:30:06;;;;;;;7.20;4.90;;;;;;;;;;103262;1320;22722;-27
2022/07/22 04:32:36;;;;;;;7.40;6.50;;;;;;;;;;103153;1323;22687;-29
2022/07/22 04:35:05;;;;;;;5.90;3.90;;;;;;;;;;103187;1320;22876;-27
2022/07/22 04:37:33;;;;;;;5.70;5.20;;;;;;;;;;103196;1326;23022;-26
2022/07/22 04:40:02;;;;;;;7.00;5.20;;;;;;;;;;103113;1313;22898;-24
2022/07/22 04:42:31;;;;;;;6.40;4.30;;;;;;;;;;103095;1323;22859;-25
2022/07/22 04:45:00;;;;;;;5.70;4.40;;;;;;;;;;103275;1314;23265;-27
2022/07/22 04:47:29;;;;;;;4.80;4.40;;;;;;;;;;103145;1324;22866;-29
2022/07/22 04:49:57;;;;;;;10.10;5.40;;;;;;;;;;103064;1314;22571;-27
2022/07/22 04:52:26;;;;;;;4.00;3.50;;;;;;;;;;103206;1324;22575;-27
2022/07/22 04:54:55;;;;;;;4.60;3.70;;;;;;;;;;103219;1326;23304;-29
2022/07/22 04:57:25;;;;;;;7.10;3.60;;;;;;;;;;103233;1314;22699;-24
2022/07/22 04:59:54;;;;;;;11.40;4.40;;;;;;;;;;103222;1312;22546;-29
2022/07/22 05:02:23;;;;;;;10.70;4.70;;;;;;;;;;103242;1313;22835;-29
2022/07/22 05:04:52;;;;;;;4.20;3.20;;;;;;;;;;103229;1320;22860;-28
2022/07/22 05:07:20;;;;;;;4.80;3.50;;;;;;;;;;103182;1323;22575;-27
2022/07/22 05:09:49;;;;;;;4.80;3.70;;;;;;;;;;103194;1323;22548;-25
2022/07/22 05:12:18;;;;;;;4.70;4.20;;;;;;;;;;103112;1314;22563;-25
2022/07/22 05:14:46;;;;;;;5.70;4.20;;;;;;;;;;103097;1320;22861;-25
2022/07/22 05:17:15;;;;;;;5.30;4.80;;;;;;;;;;103300;1313;22687;-29
2022/07/22 05:19:44;;;;;;;4.50;4.10;;;;;;;;;;103185;1315;22573;-29
2022/07/22 05:22:12;;;;;;;3.30;3.00;;;;;;;;;;103250;1314;23146;-29
2022/07/22 05:24:41;;;;;;;3.20;3.00;;;;;;;;;;103279;1323;22586;-26
2022/07/22 05:27:10;;;;;;;6.90;3.60;;;;;;;;;;103298;1313;22644;-27
2022/07/22 05:29:39;;;;;;;4.70;3.90;;;;;;;;;;103145;1323;22737;-29
2022/07/22 05:32:07;;;;;;;4.90;3.50;;;;;;;;;;103056;1317;22728;-29
2022/07/22 05:34:36;;;;;;;16.30;4.50;;;;;;;;;;103272;1323;22569;-25
2022/07/22 05:37:05;;;;;;;3.30;3.10;;;;;;;;;;103098;1313;22559;-25
2022/07/22 05:39:34;;;;;;;5.60;3.80;;;;;;;;;;103104;1320;22721;-28
2022/07/22 05:42:03;;;;;;;5.90;3.60;;;;;;;;;;103131;1313;22712;-25
2022/07/22 05:44:32;;;;;;;7.50;3.90;;;;;;;;;;103200;1320;22568;-27
2022/07/22 05:47:01;;;;;;;6.10;4.30;;;;;;;;;;103284;1326;22720;-27
2022/07/22 05:49:29;;;;;;;3.00;2.70;;;;;;;;;;103168;1322;22671;-28
2022/07/22 05:52:00;;;;;;;3.30;2.90;;;;;;;;;;103115;1320;22565;-25
2022/07/22 05:54:29;;;;;;;4.30;2.90;;;;;;;;;;103124;1320;22701;-29
2022/07/22 05:56:57;;;;;;;11.80;4.30;;;;;;;;;;103129;1314;22575;-25
2022/07/22 05:59:26;;;;;;;4.40;3.10;;;;;;;;;;103144;1313;22773;-25
2022/07/22 06:01:55;;;;;;;7.50;3.40;;;;;;;;;;103189;1315;22781;-25
2022/07/22 06:04:24;;;;;;;4.00;3.10;;;;;;;;;;103133;1325;22580;-25
2022/07/22 06:06:53;;;;;;;4.90;3.50;;;;;;;;;;103120;1313;22723;-25
2022/07/22 06:09:21;;;;;;;3.50;3.10;;;;;;;;;;103343;1324;22721;-29
2022/07/22 06:11:50;;;;;;;4.00;3.60;;;;;;;;;;103240;1313;22557;-29
2022/07/22 06:14:19;;;;;;;3.90;3.40;;;;;;;;;;103285;1325;22829;-30
2022/07/22 06:16:48;;;;;;;3.90;3.60;;;;;;;;;;103254;1315;22566;-26
2022/07/22 06:19:16;;;;;;;5.70;3.00;;;;;;;;;;103114;1322;22596;-26
2022/07/22 06:21:45;;;;;;;4.90;3.10;;;;;;;;;;103111;1313;22562;-26
2022/07/22 06:24:14;;;;;;;5.60;3.90;;;;;;;;;;103310;1326;22715;-25
2022/07/22 06:26:44;;;;;;;3.10;2.90;;;;;;;;;;103162;1320;22710;-30
2022/07/22 06:29:13;;;;;;;2.80;2.60;;;;;;;;;;103152;1320;22568;-29
2022/07/22 06:31:41;;;;;;;3.40;2.60;;;;;;;;;;103174;1314;22560;-30
2022/07/22 06:34:10;;;;;;;3.90;3.00;;;;;;;;;;103166;1326;22559;-25
2022/07/22 06:36:39;;;;;;;4.10;3.70;;;;;;;;;;103337;1313;23033;-25
2022/07/22 06:39:08;;;;;;;2.70;2.50;;;;;;;;;;103269;1313;22537;-28
2022/07/22 06:41:37;;;;;;;5.40;3.30;;;;;;;;;;103291;1319;22815;-28
2022/07/22 06:44:06;;;;;;;6.50;3.30;;;;;;;;;;103129;1320;22715;-25
2022/07/22 06:46:34;;;;;;;4.40;3.70;;;;;;;;;;103160;1322;22570;-29
2022/07/22 06:49:03;;;;;;;3.70;2.80;;;;;;;;;;103081;1323;22559;-26
2022/07/22 06:51:33;;;;;;;7.00;3.00;;;;;;;;;;103210;1318;22520;-25
2022/07/22 06:54:02;;;;;;;3.60;3.30;;;;;;;;;;103285;1320;22568;-25
2022/07/22 06:56:31;;;;;;;3.40;2.70;;;;;;;;;;103119;1314;22935;-26
2022/07/22 06:58:59;;;;;;;3.80;3.50;;;;;;;;;;103020;1323;22754;-25
2022/07/22 07:01:28;;;;;;;5.60;3.30;;;;;;;;;;103198;1322;22584;-25
2022/07/22 07:03:57;;;;;;;4.50;4.10;;;;;;;;;;103303;1323;22577;-28
2022/07/22 07:06:26;;;;;;;3.60;2.90;;;;;;;;;;103145;1314;22724;-29
2022/07/22 07:08:55;;;;;;;2.90;2.50;;;;;;;;;;103127;1326;23048;-26
2022/07/22 07:11:24;;;;;;;12.00;3.00;;;;;;;;;;103313;1327;22727;-29
2022/07/22 07:13:53;;;;;;;3.50;3.00;;;;;;;;;;103286;1325;22692;-26
2022/07/22 07:16:21;;;;;;;3.60;2.90;;;;;;;;;;103043;1315;22572;-28
2022/07/22 07:18:50;;;;;;;5.30;3.60;;;;;;;;;;103227;1322;22567;-25
2022/07/22 07:21:19;;;;;;;4.50;3.60;;;;;;;;;;103152;1320;22831;-25
2022/07/22 07:23:57;;;;;;;2.70;2.50;;;;;;;;;;103268;1314;22841;-25
2022/07/22 07:26:25;;;;;;;3.40;3.10;;;;;;;;;;103318;1320;22548;-29
2022/07/22 07:28:54;;;;;;;3.10;2.70;;;;;;;;;;103114;1326;22582;-27
2022/07/22 07:31:23;;;;;;;3.50;3.20;;;;;;;;;;103068;1328;22577;-26
2022/07/22 07:33:53;;;;;;;4.50;3.70;;;;;;;;;;103102;1322;22714;-26
2022/07/22 07:36:22;;;;;;;4.00;3.10;;;;;;;;;;103078;1320;22479;-26
2022/07/22 07:38:51;;;;;;;18.70;3.60;;;;;;;;;;103104;1326;22724;-26
2022/07/22 07:41:20;;;;;;;4.00;3.20;;;;;;;;;;103093;1315;22549;-29
2022/07/22 07:43:49;;;;;;;4.20;3.90;;;;;;;;;;103147;1323;22681;-26
2022/07/22 07:46:18;;;;;;;3.20;3.00;;;;;;;;;;103272;1320;22589;-26
2022/07/22 07:48:48;;;;;;;5.20;3.80;;;;;;;;;;103176;1318;22565;-25
2022/07/22 07:51:16;;;;;;;9.00;3.80;;;;;;;;;;103096;1326;22732;-29
2022/07/22 07:53:45;;;;;;;3.40;3.00;;;;;;;;;;103176;1323;22614;-28
2022/07/22 07:56:14;;;;;;;10.20;3.60;;;;;;;;;;103136;1320;22564;-31
2022/07/22 07:58:43;;;;;;;4.80;4.40;;;;;;;;;;103152;1326;22716;-31
2022/07/22 08:01:12;;;;;;;5.00;3.80;;;;;;;;;;103158;1320;23013;-27
2022/07/22 08:03:40;;;;;;;4.10;3.80;;;;;;;;;;103076;1323;22809;-30
2022/07/22 08:06:09;;;;;;;4.10;3.20;;;;;;;;;;103128;1326;22559;-30
2022/07/22 08:08:38;;;;;;;7.50;4.20;;;;;;;;;;103092;1323;22725;-30
2022/07/22 08:11:07;;;;;;;4.50;3.60;;;;;;;;;;103110;1320;22564;-29
2022/07/22 08:13:36;;;;;;;4.60;3.70;;;;;;;;;;103198;1321;22728;-29
2022/07/22 08:16:04;;;;;;;4.40;4.00;;;;;;;;;;103195;1320;22558;-29
2022/07/22 08:18:33;;;;;;;7.50;3.50;;;;;;;;;;103114;1326;22709;-28
2022/07/22 08:21:02;;;;;;;6.80;3.60;;;;;;;;;;103277;1320;22566;-31
2022/07/22 08:23:31;;;;;;;3.50;3.20;;;;;;;;;;103125;1326;22722;-30
2022/07/22 08:26:09;;;;;;;4.70;3.70;;;;;;;;;;103201;1315;22730;-30
2022/07/22 08:28:46;;;;;;;5.30;4.00;;;;;;;;;;103109;1320;22570;-25
2022/07/22 08:31:23;;;;;;;3.00;2.80;;;;;;;;;;103221;1323;22722;-25
2022/07/22 08:33:52;;;;;;;4.40;4.00;;;;;;;;;;103219;1326;22579;-29
2022/07/22 08:36:21;;;;;;;3.80;3.50;;;;;;;;;;103128;1320;22748;-25
2022/07/22 08:38:50;;;;;;;4.30;3.90;;;;;;;;;;103176;1326;22722;-30
2022/07/22 08:41:18;;;;;;;4.00;3.50;;;;;;;;;;103141;1323;22571;-25
2022/07/22 08:43:47;;;;;;;7.10;5.40;;;;;;;;;;103296;1320;22558;-25
2022/07/22 08:46:16;;;;;;;3.10;2.90;;;;;;;;;;103294;1314;22546;-25
2022/07/22 08:48:45;;;;;;;3.70;3.20;;;;;;;;;;103098;1326;22567;-29
2022/07/22 08:51:14;;;;;;;2.80;2.60;;;;;;;;;;103095;1314;22562;-25
2022/07/22 08:53:43;;;;;;;2.00;1.30;;;;;;;;;;103067;1322;22744;-25
2022/07/22 08:56:12;;;;;;;4.60;4.10;;;;;;;;;;103128;1318;22572;-27
2022/07/22 08:58:41;;;;;;;3.30;2.60;;;;;;;;;;103190;1326;22718;-24
2022/07/22 09:01:10;;;;;;;5.60;2.80;;;;;;;;;;103218;1315;22550;-24
2022/07/22 09:03:43;;;;;;;2.60;2.40;;;;;;;;;;103196;1323;22725;-28
2022/07/22 09:06:11;;;;;;;;;;;;;;;;;;103101;1321;22859;-28
2022/07/22 09:08:43;;;;;;;8.50;3.70;;;;;;;;;;103260;1323;22712;-28
2022/07/22 09:11:12;;;;;;;;;;;;;;;;;;103060;1326;22597;-25
2022/07/22 09:13:42;;;;;;;3.90;2.80;;;;;;;;;;103117;1326;22719;-25
2022/07/22 09:16:11;;;;;;;2.90;2.70;;;;;;;;;;103090;1324;25257;-29
2022/07/22 09:18:50;;;;;;;10.10;3.70;;;;;;;;;;103115;1320;22626;-29
2022/07/22 09:21:29;;;;;;;3.10;2.80;;;;;;;;;;103273;1315;22711;-26
2022/07/22 09:24:06;;;;;;;6.70;3.10;;;;;;;;;;103135;1315;22583;-25
2022/07/22 09:26:38;;;;;;;5.40;4.00;;;;;;;;;;103210;1326;22553;-25
2022/07/22 09:29:07;;;;;;;6.20;3.60;;;;;;;;;;103198;1320;22723;-25
2022/07/22 09:31:36;;;;;;;2.20;1.80;;;;;;;;;;103120;1320;22555;-29
2022/07/22 09:34:05;;;;;;;4.40;3.30;;;;;;;;;;103216;1320;23298;-26
2022/07/22 09:36:48;;;;;;;4.00;3.70;;;;;;;;;;103104;1320;22826;-26
2022/07/22 09:39:26;;;;;;;4.50;3.00;;;;;;;;;;103100;1326;22582;-26
2022/07/22 09:41:56;;;;;;;3.60;3.30;;;;;;;;;;103279;1314;22578;-25
2022/07/22 09:44:25;;;;;;;2.80;2.50;;;;;;;;;;103086;1322;22578;-23
2022/07/22 09:47:02;;;;;;;3.50;2.80;;;;;;;;;;103041;1327;22957;-28
2022/07/22 09:49:40;;;;;;;3.90;3.60;;;;;;;;;;103043;1326;22686;-26
2022/07/22 09:52:08;;;;;;;4.40;3.90;;;;;;;;;;103156;1326;22564;-25
2022/07/22 09:54:37;;;;;;;4.10;3.40;;;;;;;;;;103156;1325;22975;-31
2022/07/22 09:57:06;;;;;;;6.00;2.60;;;;;;;;;;103182;1315;22679;-25
2022/07/22 09:59:35;;;;;;;3.30;2.90;;;;;;;;;;103095;1320;22957;-28
2022/07/22 10:02:04;;;;;;;3.20;2.80;;;;;;;;;;103290;1314;22955;-25
2022/07/22 10:04:33;;;;;;;2.00;1.70;;;;;;;;;;103102;1315;22586;-24
2022/07/22 10:07:02;;;;;;;4.30;3.30;;;;;;;;;;103067;1314;22700;-26
2022/07/22 10:09:30;;;;;;;7.50;3.40;;;;;;;;;;103258;1326;22860;-24
2022/07/22 10:11:59;;;;;;;8.10;3.10;;;;;;;;;;103262;1328;25273;-24
2022/07/22 10:14:28;;;;;;;2.80;2.60;;;;;;;;;;103120;1314;22863;-28
2022/07/22 10:16:57;;;;;;;2.80;2.50;;;;;;;;;;102571;1323;1003157;-29
2022/07/22 10:19:26;;;;;;;11.50;3.70;;;;;;;;;;103126;1313;22732;-27
2022/07/22 10:21:55;;;;;;;3.90;2.80;;;;;;;;;;103172;1314;22564;-28
2022/07/22 10:24:33;;;;;;;4.80;2.60;;;;;;;;;;103113;1320;22987;-28
2022/07/22 10:27:10;;;;;;;7.70;2.90;;;;;;;;;;103174;1324;22674;-30
2022/07/22 10:29:40;;;;;;;25.20;3.20;;;;;;;;;;103261;1326;22850;-26
2022/07/22 10:32:12;;;;;;;3.10;2.80;;;;;;;;;;103142;1314;23148;-24
2022/07/22 10:34:41;;;;;;;2.60;2.20;;;;;;;;;;103165;1320;22990;-24
2022/07/22 10:37:14;;;;;;;2.60;2.30;;;;;;;;;;103114;1326;22581;-23
2022/07/22 10:39:54;;;;;;;2.70;2.40;;;;;;;;;;103203;1326;23967;-29
2022/07/22 10:42:52;;;;;;;2.90;2.60;;;;;;;;;;103412;1320;24297;-29
2022/07/22 10:45:31;;;;;;;2.70;2.50;;;;;;;;;;103094;1326;22574;-25
2022/07/22 10:48:09;;;;;;;2.30;2.10;;;;;;;;;;103271;1314;22558;-29
2022/07/22 10:50:39;;;;;;;3.00;2.00;;;;;;;;;;103178;1326;22582;-25
2022/07/22 10:53:09;;;;;;;2.60;2.30;;;;;;;;;;103242;1320;22855;-29
2022/07/22 10:55:38;;;;;;;2.50;2.00;;;;;;;;;;103165;1327;22725;-25
2022/07/22 10:58:11;;;;;;;2.90;2.60;;;;;;;;;;103139;1313;22877;-29
2022/07/22 11:00:39;;;;;;;3.40;2.40;;;;;;;;;;103162;1320;22545;-25
2022/07/22 11:03:08;;;;;;;8.60;2.70;;;;;;;;;;103205;1313;22560;-25
2022/07/22 11:05:37;;;;;;;2.40;2.20;;;;;;;;;;103129;1320;22697;-29
2022/07/22 11:08:14;;;;;;;2.10;1.90;;;;;;;;;;103129;1323;22745;-29
2022/07/22 11:10:46;;;;;;;2.40;2.20;;;;;;;;;;103228;1315;22573;-25
2022/07/22 11:13:35;;;;;;;2.40;1.80;;;;;;;;;;103220;1320;22712;-25
2022/07/22 11:16:07;;;;;;;3.50;2.20;;;;;;;;;;103131;1320;22582;-28
2022/07/22 11:18:45;;;;;;;2.60;2.00;;;;;;;;;;103149;1322;23172;-28
2022/07/22 11:21:16;;;;;;;3.40;2.50;;;;;;;;;;103328;1314;22718;-24
2022/07/22 11:23:55;;;;;;;2.60;2.20;;;;;;;;;;103060;1323;22680;-25
2022/07/22 11:26:25;;;;;;;3.70;2.50;;;;;;;;;;103040;1323;22678;-30
2022/07/22 11:28:54;;;;;;;2.70;2.50;;;;;;;;;;103197;1326;22586;-26
2022/07/22 11:31:23;;;;;;;4.00;2.50;;;;;;;;;;103081;1323;22565;-28
2022/07/22 11:33:52;;;;;;;3.00;2.60;;;;;;;;;;103116;1320;22559;-24
2022/07/22 11:36:23;;;;;;;2.60;2.10;;;;;;;;;;103121;1313;22878;-25
2022/07/22 11:38:52;;;;;;;2.20;2.10;;;;;;;;;;103171;1298;22819;-26
2022/07/22 11:41:20;;;;;;;1.80;1.60;;;;;;;;;;103328;1313;22569;-28
2022/07/22 11:43:49;;;;;;;;;;;;;;;;;;103102;1323;22590;-28
2022/07/22 11:46:18;;;;;;;4.60;1.80;;;;;;;;;;103155;1313;23047;-24
2022/07/22 11:48:47;;;;;;;2.00;1.70;;;;;;;;;;103141;1314;22589;-25
2022/07/22 11:51:16;;;;;;;1.30;1.20;;;;;;;;;;103217;1321;22724;-24
2022/07/22 11:53:53;;;;;;;1.90;1.80;;;;;;;;;;103116;1326;22549;-30
2022/07/22 11:56:22;;;;;;;2.40;2.20;;;;;;;;;;103137;1319;22571;-22
2022/07/22 11:58:54;;;;;;;2.50;1.90;;;;;;;;;;103186;1323;22574;-25
2022/07/22 12:01:24;;;;;;;1.90;1.40;;;;;;;;;;103106;1320;22692;-29
2022/07/22 12:03:53;;;;;;;2.10;1.80;;;;;;;;;;102705;1326;536303;-25
2022/07/22 12:06:22;;;;;;;2.30;2.10;;;;;;;;;;103180;1314;22670;-25
2022/07/22 12:08:53;;;;;;;2.00;1.90;;;;;;;;;;103188;1321;22775;-29
2022/07/22 12:11:23;;;;;;;1.90;1.80;;;;;;;;;;103157;1320;22857;-28
2022/07/22 12:13:52;;;;;;;2.40;2.10;;;;;;;;;;103180;1320;22739;-28
2022/07/22 12:16:22;;;;;;;2.10;1.50;;;;;;;;;;103110;1314;22723;-28
2022/07/22 12:18:52;;;;;;;2.20;1.90;;;;;;;;;;103082;1320;22568;-24
2022/07/22 12:21:21;;;;;;;2.90;1.50;;;;;;;;;;103244;1323;22566;-24
2022/07/22 12:23:52;;;;;;;3.00;2.80;;;;;;;;;;103080;1320;22546;-28
2022/07/22 12:26:36;;;;;;;2.10;1.80;;;;;;;;;;103219;1320;22662;-28
2022/07/22 12:29:08;;;;;;;3.60;2.00;;;;;;;;;;103173;1320;22713;-25
2022/07/22 12:31:41;;;;;;;2.20;1.90;;;;;;;;;;103341;1320;22552;-25
2022/07/22 12:34:10;;;;;;;1.90;1.70;;;;;;;;;;103257;1320;22550;-24
2022/07/22 12:36:42;;;;;;;1.80;1.50;;;;;;;;;;103195;1314;22569;-24
2022/07/22 12:39:12;;;;;;;2.50;1.90;;;;;;;;;;103199;1320;22773;-28
2022/07/22 12:41:51;;;;;;;1.80;1.60;;;;;;;;;;103203;1320;23052;-28
2022/07/22 12:44:21;;;;;;;3.70;1.60;;;;;;;;;;103291;1326;22908;-28
2022/07/22 12:46:51;;;;;;;0.80;0.80;;;;;;;;;;103097;1320;22579;-28
2022/07/22 12:49:20;;;;;;;1.80;1.50;;;;;;;;;;103070;1326;22551;-24
2022/07/22 12:51:53;;;;;;;2.70;2.30;;;;;;;;;;103217;1326;22763;-24
2022/07/22 12:54:21;;;;;;;4.70;2.30;;;;;;;;;;103137;1320;23182;-23
2022/07/22 12:56:50;;;;;;;7.00;2.10;;;;;;;;;;103255;1313;22836;-30
2022/07/22 12:59:19;;;;;;;2.50;2.20;;;;;;;;;;103239;1323;22845;-26
2022/07/22 13:01:56;;;;;;;2.30;2.00;;;;;;;;;;103122;1313;22850;-24
2022/07/22 13:04:34;;;;;;;2.30;2.00;;;;;;;;;;103127;1320;22699;-28
2022/07/22 13:07:11;;;;;;;2.20;2.00;;;;;;;;;;103080;1324;22744;-29
2022/07/22 13:09:48;;;;;;;2.70;2.40;;;;;;;;;;103120;1313;22750;-29
2022/07/22 13:12:17;;;;;;;2.80;2.40;;;;;;;;;;103115;1328;22567;-28
2022/07/22 13:14:46;;;;;;;3.60;3.30;;;;;;;;;;103088;1326;22578;-25
2022/07/22 13:17:15;;;;;;;2.80;2.50;;;;;;;;;;103107;1313;22703;-26
2022/07/22 13:19:44;;;;;;;3.30;2.00;;;;;;;;;;102537;1320;1004365;-28
2022/07/22 13:22:21;;;;;;;2.60;2.40;;;;;;;;;;103156;1320;22977;-28
2022/07/22 13:24:50;;;;;;;5.40;2.90;;;;;;;;;;103122;1313;22688;-23
2022/07/22 13:27:19;;;;;;;2.20;1.70;;;;;;;;;;103267;1313;22587;-31
2022/07/22 13:29:48;;;;;;;4.20;2.60;;;;;;;;;;103211;1320;22583;-28
2022/07/22 13:32:16;;;;;;;1.80;1.70;;;;;;;;;;103299;1320;22576;-26
2022/07/22 13:34:45;;;;;;;2.80;1.60;;;;;;;;;;103089;1326;22564;-25
2022/07/22 13:37:14;;;;;;;1.70;1.20;;;;;;;;;;103174;1320;22732;-29
2022/07/22 13:39:45;;;;;;;1.90;1.60;;;;;;;;;;103141;1323;23135;-25
2022/07/22 13:42:17;;;;;;;2.20;1.60;;;;;;;;;;103208;1320;22565;-29
2022/07/22 13:44:54;;;;;;;1.90;1.60;;;;;;;;;;103248;1314;22739;-24
2022/07/22 13:47:32;;;;;;;2.70;1.90;;;;;;;;;;103084;1314;22570;-25
2022/07/22 13:50:09;;;;;;;2.00;1.90;;;;;;;;;;103206;1320;22576;-28
2022/07/22 13:52:38;;;;;;;3.30;2.50;;;;;;;;;;103128;1323;22713;-30
2022/07/22 13:55:07;;;;;;;8.30;2.60;;;;;;;;;;103211;1320;22657;-30
2022/07/22 13:57:36;;;;;;;2.90;2.30;;;;;;;;;;103241;1320;22597;-28
2022/07/22 14:00:06;;;;;;;3.00;2.40;;;;;;;;;;103117;1313;22559;-28
2022/07/22 14:02:35;;;;;;;4.40;2.40;;;;;;;;;;103223;1314;25361;-30
2022/07/22 14:05:04;;;;;;;2.00;1.70;;;;;;;;;;103154;1314;22864;-29
2022/07/22 14:07:33;;;;;;;2.10;1.60;;;;;;;;;;103186;1321;22851;-25
2022/07/22 14:10:02;;;;;;;2.80;1.80;;;;;;;;;;103201;1314;22578;-25
2022/07/22 14:12:31;;;;;;;1.90;1.80;;;;;;;;;;103190;1320;22860;-30
2022/07/22 14:15:00;;;;;;;7.80;2.80;;;;;;;;;;103131;1313;22583;-28
2022/07/22 14:17:28;;;;;;;12.30;2.40;;;;;;;;;;103193;1320;22689;-28
2022/07/22 14:19:59;;;;;;;4.30;2.30;;;;;;;;;;103141;1313;22863;-24
2022/07/22 14:22:28;;;;;;;3.20;2.80;;;;;;;;;;103204;1314;22712;-26
2022/07/22 14:24:57;;;;;;;2.70;2.20;;;;;;;;;;103091;1320;22575;-28
2022/07/22 14:27:26;;;;;;;3.00;2.30;;;;;;;;;;103258;1313;22565;-24
2022/07/22 14:29:54;;;;;;;3.00;2.70;;;;;;;;;;103182;1313;22576;-25
2022/07/22 14:32:23;;;;;;;1.90;1.70;;;;;;;;;;103053;1323;22567;-28
2022/07/22 14:34:52;;;;;;;11.20;2.10;;;;;;;;;;103131;1313;22568;-28
2022/07/22 14:37:22;;;;;;;7.20;2.40;;;;;;;;;;103134;1322;22567;-24
2022/07/22 14:39:51;;;;;;;3.80;2.60;;;;;;;;;;103343;1314;22736;-28
2022/07/22 14:42:19;;;;;;;2.70;2.20;;;;;;;;;;103041;1313;22566;-29
2022/07/22 14:44:48;;;;;;;3.30;2.40;;;;;;;;;;103094;1317;22712;-25